Nearby METAR Reports

 

NZCH - Christchurch Int, New Zealand
Distance from station: W 10km
Updated: 20 Oct 2021 16:00
Overcast
Overcast
 Wind from NE
Wind: NE 11 km/h
Temperature: 12°C
Dew Point: 5°C
Humidity: 63%
Barometer: 1030 hPa
Clouds: Overcast
Visibility: 10 km
Cloud details: Mostly cloudy 1128 m
Overcast 1372 m
2021/10/20 03:00 NZCH 200300Z AUTO 05006KT 020V100 9999 BKN037/// OVC045/// 12/05 Q1030 NOSIG